BGBA weather

Boggabilla Fuel Depot Landing Site
Goondiwindi, New South Wales, Australia

Public forecast

Using degrees Celsius for public forecast. Weather courtesy of forecast.io.

Closest aviation weather report (METAR) to Boggabilla Fuel Depot Landing Site

Closest report is Moree Airport, 59.7 nm (110.6 km) SSW. Retrieved 2019/12/16 12:00 UTC (32 minutes ago):

YMOR 161200Z AUTO 22012KT 9999 // SCT110 29/M01 Q1010

Closest aviation forecast (TAF) to Boggabilla Fuel Depot Landing Site

Forecast is more than 12 hours old.

Closest forecast is RAAF Base Amberley, 137.8 nm (255.2 km) ENE. Retrieved 2019-12-16 00:00 UTC (13 hours ago):

TAF YAMB 152246Z 1600/1618 30008KT CAVOK FM160100 24007KT CAVOK FM160600 12018KT CAVOK FM161000 15010KT 9999 SCT025